createdAt,value
2023-04-26T00:00:37.355Z,56.81
2023-04-26T00:01:37.357Z,56.50
2023-04-26T00:02:37.527Z,56.28
2023-04-26T00:03:38.117Z,56.36
2023-04-26T00:04:37.662Z,56.22
2023-04-26T00:05:37.423Z,56.53
2023-04-26T00:06:37.466Z,56.70
2023-04-26T00:07:37.500Z,56.60
2023-04-26T00:08:37.785Z,56.30
2023-04-26T00:09:37.636Z,56.01
2023-04-26T00:10:37.755Z,56.07
2023-04-26T00:11:37.763Z,56.16
2023-04-26T00:12:37.817Z,56.58
2023-04-26T00:13:38.252Z,56.39
2023-04-26T00:14:37.925Z,56.45
2023-04-26T00:15:37.977Z,56.48
2023-04-26T00:16:38.108Z,56.88
2023-04-26T00:17:38.113Z,56.66
2023-04-26T00:18:38.164Z,56.49
2023-04-26T00:19:38.239Z,56.52
2023-04-26T00:20:38.276Z,56.48
2023-04-26T00:21:38.334Z,56.12
2023-04-26T00:22:38.411Z,56.45
2023-04-26T00:23:38.493Z,56.47
2023-04-26T00:24:38.553Z,56.59
2023-04-26T00:25:38.611Z,56.70
2023-04-26T00:26:38.654Z,56.96
2023-04-26T00:27:38.722Z,56.93
2023-04-26T00:28:38.790Z,56.97
2023-04-26T00:29:38.851Z,56.81
2023-04-26T00:30:38.899Z,56.81
2023-04-26T00:31:39.044Z,56.80
2023-04-26T00:32:39.067Z,57.13
2023-04-26T00:33:39.045Z,56.74
2023-04-26T00:34:39.110Z,57.07
2023-04-26T00:35:39.093Z,57.33
2023-04-26T00:36:39.144Z,57.06
2023-04-26T00:37:39.132Z,57.08
2023-04-26T00:38:39.223Z,57.17
2023-04-26T00:39:39.255Z,57.23
2023-04-26T00:40:39.285Z,57.02
2023-04-26T00:41:39.306Z,57.05
2023-04-26T00:42:39.304Z,57.24
2023-04-26T00:43:39.363Z,57.46
2023-04-26T00:44:39.374Z,57.44
2023-04-26T00:45:39.410Z,57.46
2023-04-26T00:46:39.418Z,57.84
2023-04-26T00:47:39.451Z,57.91
2023-04-26T00:48:39.465Z,58.01
2023-04-26T00:49:39.495Z,57.78
2023-04-26T00:50:39.596Z,58.15
2023-04-26T00:51:39.542Z,58.34
2023-04-26T00:52:39.557Z,58.05
2023-04-26T00:53:39.669Z,58.00
2023-04-26T00:54:39.686Z,57.73
2023-04-26T00:55:39.788Z,57.65
2023-04-26T00:56:39.867Z,57.93
2023-04-26T00:57:39.876Z,57.78
2023-04-26T00:58:39.868Z,57.91
2023-04-26T00:59:39.952Z,57.70
2023-04-26T01:00:39.974Z,57.61
2023-04-26T01:01:40.067Z,57.91
2023-04-26T01:02:40.237Z,57.78
2023-04-26T01:03:40.241Z,57.76
2023-04-26T01:04:40.115Z,57.76
2023-04-26T01:05:40.244Z,57.71
2023-04-26T01:06:40.185Z,57.52
2023-04-26T01:07:40.220Z,57.86
2023-04-26T01:08:40.236Z,57.67
2023-04-26T01:09:40.294Z,57.76
2023-04-26T01:10:40.287Z,57.84
2023-04-26T01:11:40.350Z,57.97
2023-04-26T01:12:40.362Z,58.20
2023-04-26T01:13:40.383Z,58.38
2023-04-26T01:14:40.384Z,58.73
2023-04-26T01:15:40.421Z,58.61
2023-04-26T01:16:40.397Z,58.60
2023-04-26T01:17:40.506Z,58.67
2023-04-26T01:18:40.770Z,58.54
2023-04-26T01:19:40.509Z,58.09
2023-04-26T01:20:40.539Z,57.84
2023-04-26T01:21:40.546Z,58.01
2023-04-26T01:22:40.591Z,57.92
2023-04-26T01:23:40.600Z,58.34
2023-04-26T01:24:40.600Z,58.74
2023-04-26T01:25:40.667Z,58.88
2023-04-26T01:26:40.663Z,58.47
2023-04-26T01:27:40.709Z,58.88
2023-04-26T01:28:40.824Z,58.98
2023-04-26T01:29:40.928Z,58.95
2023-04-26T01:30:40.936Z,58.70
2023-04-26T01:31:40.974Z,58.41
2023-04-26T01:32:41.022Z,58.83
2023-04-26T01:33:41.273Z,58.78
2023-04-26T01:34:41.094Z,58.80
2023-04-26T01:35:41.155Z,58.75
2023-04-26T01:36:41.175Z,58.86
2023-04-26T01:37:41.187Z,58.55
2023-04-26T01:38:41.202Z,58.30
2023-04-26T01:39:41.196Z,58.19
2023-04-26T01:40:41.216Z,58.26
2023-04-26T01:41:41.280Z,58.24
2023-04-26T01:42:41.253Z,58.09
2023-04-26T01:43:41.286Z,58.05
2023-04-26T01:44:41.299Z,57.57
2023-04-26T01:45:41.254Z,57.40
2023-04-26T01:46:41.404Z,57.47
2023-04-26T01:47:41.375Z,57.46
2023-04-26T01:48:41.285Z,57.37
2023-04-26T01:49:41.289Z,56.93
2023-04-26T01:50:41.341Z,57.16
2023-04-26T01:51:41.354Z,57.10
2023-04-26T01:52:41.328Z,56.94
2023-04-26T01:53:41.388Z,57.34
2023-04-26T01:54:41.360Z,57.47
2023-04-26T01:55:41.364Z,57.53
2023-04-26T01:56:41.373Z,57.50
2023-04-26T01:57:41.382Z,57.64
2023-04-26T01:58:41.383Z,57.87
2023-04-26T01:59:41.408Z,57.60
2023-04-26T02:00:41.363Z,57.60
2023-04-26T02:01:41.475Z,57.40
2023-04-26T02:02:41.480Z,57.11
2023-04-26T02:03:41.416Z,57.08
2023-04-26T02:04:41.477Z,56.78
2023-04-26T02:05:41.444Z,57.02
2023-04-26T02:06:41.452Z,57.17
2023-04-26T02:07:41.412Z,57.36
2023-04-26T02:08:41.457Z,57.76
2023-04-26T02:09:41.430Z,57.43
2023-04-26T02:10:41.475Z,57.41
2023-04-26T02:11:41.436Z,57.14
2023-04-26T02:12:41.482Z,57.39
2023-04-26T02:13:41.486Z,57.50
2023-04-26T02:14:41.529Z,57.63
2023-04-26T02:15:41.537Z,57.70
2023-04-26T02:16:41.534Z,57.55
2023-04-26T02:17:41.551Z,57.60
2023-04-26T02:18:41.636Z,57.84
2023-04-26T02:19:41.564Z,57.79
2023-04-26T02:20:41.568Z,57.71
2023-04-26T02:21:41.541Z,58.46
2023-04-26T02:22:41.561Z,58.35
2023-04-26T02:23:41.600Z,57.73
2023-04-26T02:24:41.635Z,57.86
2023-04-26T02:25:41.581Z,58.26
2023-04-26T02:26:41.636Z,58.32
2023-04-26T02:27:41.636Z,58.17
2023-04-26T02:28:41.674Z,58.44
2023-04-26T02:29:44.708Z,58.48
2023-04-26T02:30:41.677Z,58.38
2023-04-26T02:31:41.658Z,58.40
2023-04-26T02:32:41.671Z,58.29
2023-04-26T02:33:41.676Z,58.30
2023-04-26T02:34:41.632Z,58.40
2023-04-26T02:35:41.635Z,58.27
2023-04-26T02:36:41.657Z,58.32
2023-04-26T02:37:41.624Z,58.73
2023-04-26T02:38:41.627Z,58.81
2023-04-26T02:39:41.606Z,58.91
2023-04-26T02:40:41.566Z,58.70
2023-04-26T02:41:41.591Z,58.44
2023-04-26T02:42:41.622Z,57.98
2023-04-26T02:43:41.617Z,57.84
2023-04-26T02:44:41.608Z,57.87
2023-04-26T02:45:41.579Z,57.96
2023-04-26T02:46:41.563Z,58.25
2023-04-26T02:47:41.561Z,58.34
2023-04-26T02:48:41.582Z,58.03
2023-04-26T02:49:41.546Z,58.28
2023-04-26T02:50:41.513Z,58.38
2023-04-26T02:51:41.507Z,58.29
2023-04-26T02:52:41.586Z,58.45
2023-04-26T02:53:41.497Z,58.47
2023-04-26T02:54:41.815Z,58.41
2023-04-26T02:55:41.501Z,58.46
2023-04-26T02:56:41.486Z,58.40
2023-04-26T02:57:41.471Z,58.55
2023-04-26T02:58:41.499Z,58.76
2023-04-26T02:59:42.318Z,58.59
2023-04-26T03:00:41.502Z,58.69
2023-04-26T03:01:41.433Z,58.65
2023-04-26T03:02:41.581Z,58.46
2023-04-26T03:03:41.608Z,58.49
2023-04-26T03:04:41.817Z,58.66
2023-04-26T03:05:41.393Z,58.83
2023-04-26T03:06:41.399Z,58.77
2023-04-26T03:07:41.396Z,59.01
2023-04-26T03:08:41.408Z,59.23
2023-04-26T03:09:41.384Z,59.23
2023-04-26T03:10:41.380Z,58.94
2023-04-26T03:11:41.375Z,58.95
2023-04-26T03:12:41.391Z,59.15
2023-04-26T03:13:41.349Z,59.04
2023-04-26T03:14:41.345Z,58.92
2023-04-26T03:15:41.318Z,58.93
2023-04-26T03:16:41.408Z,58.78
2023-04-26T03:17:41.409Z,58.76
2023-04-26T03:18:41.364Z,58.87
2023-04-26T03:19:41.335Z,58.90
2023-04-26T03:20:41.341Z,58.80
2023-04-26T03:21:41.300Z,58.81
2023-04-26T03:22:41.310Z,58.78
2023-04-26T03:23:41.253Z,58.57
2023-04-26T03:24:41.307Z,58.53
2023-04-26T03:25:41.279Z,58.55
2023-04-26T03:26:41.284Z,58.54
2023-04-26T03:27:41.240Z,58.44
2023-04-26T03:28:41.232Z,58.33
2023-04-26T03:29:43.433Z,58.47
2023-04-26T03:30:41.251Z,58.36
2023-04-26T03:31:41.270Z,58.30
2023-04-26T03:32:41.254Z,58.30
2023-04-26T03:33:41.231Z,58.30
2023-04-26T03:34:41.238Z,58.46
2023-04-26T03:35:41.208Z,58.48
2023-04-26T03:36:41.238Z,58.83
2023-04-26T03:37:41.182Z,58.83
2023-04-26T03:38:41.186Z,58.54
2023-04-26T03:39:41.317Z,58.30
2023-04-26T03:40:41.178Z,59.02
2023-04-26T03:41:41.188Z,59.32
2023-04-26T03:42:41.147Z,59.46
2023-04-26T03:43:41.181Z,59.13
2023-04-26T03:44:41.132Z,59.13
2023-04-26T03:45:41.191Z,59.09
2023-04-26T03:46:41.141Z,59.14
2023-04-26T03:47:41.160Z,58.97
2023-04-26T03:48:41.144Z,58.97
2023-04-26T03:49:41.090Z,58.89
2023-04-26T03:50:41.134Z,58.80
2023-04-26T03:51:41.104Z,58.59
2023-04-26T03:52:41.077Z,58.51
2023-04-26T03:53:41.096Z,58.86
2023-04-26T03:54:41.100Z,59.09
2023-04-26T03:55:41.104Z,58.93
2023-04-26T03:56:41.073Z,58.37
2023-04-26T03:57:41.050Z,58.63
2023-04-26T03:58:41.085Z,58.81
2023-04-26T03:59:41.071Z,58.80
2023-04-26T04:00:41.043Z,58.72
2023-04-26T04:01:41.006Z,58.70
2023-04-26T04:02:41.102Z,58.76
2023-04-26T04:03:41.733Z,58.60
2023-04-26T04:04:41.102Z,58.29
2023-04-26T04:05:41.123Z,58.43
2023-04-26T04:06:40.995Z,58.74
2023-04-26T04:07:40.971Z,58.62
2023-04-26T04:08:40.949Z,58.50
2023-04-26T04:09:40.963Z,58.10
2023-04-26T04:10:40.959Z,58.13
2023-04-26T04:11:40.934Z,57.98
2023-04-26T04:12:40.985Z,58.31
2023-04-26T04:13:40.917Z,58.34
2023-04-26T04:14:40.937Z,58.30
2023-04-26T04:15:40.946Z,58.56
2023-04-26T04:16:40.889Z,58.35
2023-04-26T04:17:40.937Z,58.06
2023-04-26T04:18:40.918Z,58.04
2023-04-26T04:19:41.306Z,58.11
2023-04-26T04:20:40.899Z,58.11
2023-04-26T04:21:40.892Z,57.73
2023-04-26T04:22:40.864Z,57.50
2023-04-26T04:23:40.879Z,57.65
2023-04-26T04:24:41.370Z,57.69
2023-04-26T04:25:40.848Z,57.56
2023-04-26T04:26:40.829Z,57.73
2023-04-26T04:27:41.819Z,57.54
2023-04-26T04:28:40.825Z,57.64
2023-04-26T04:29:41.335Z,57.82
2023-04-26T04:30:40.839Z,57.88
2023-04-26T04:31:40.909Z,57.76
2023-04-26T04:32:40.856Z,58.01
2023-04-26T04:33:40.781Z,58.18
2023-04-26T04:34:40.864Z,58.04
2023-04-26T04:35:40.823Z,58.00
2023-04-26T04:36:40.849Z,57.81
2023-04-26T04:37:40.773Z,57.59
2023-04-26T04:38:40.735Z,57.60
2023-04-26T04:39:40.780Z,57.33
2023-04-26T04:40:40.754Z,57.62
2023-04-26T04:41:40.753Z,57.89
2023-04-26T04:42:40.759Z,58.02
2023-04-26T04:43:40.738Z,58.32
2023-04-26T04:44:40.711Z,57.92
2023-04-26T04:45:40.725Z,57.82
2023-04-26T04:46:40.712Z,57.33
2023-04-26T04:47:40.756Z,57.62
2023-04-26T04:48:40.701Z,57.62
2023-04-26T04:49:40.656Z,57.56
2023-04-26T04:50:40.708Z,57.60
2023-04-26T04:51:40.651Z,57.50
2023-04-26T04:52:40.655Z,57.72
2023-04-26T04:53:40.674Z,57.60
2023-04-26T04:54:40.673Z,57.74
2023-04-26T04:55:40.659Z,58.37
2023-04-26T04:56:40.665Z,58.47
2023-04-26T04:57:42.750Z,58.37
2023-04-26T04:58:40.721Z,58.18
2023-04-26T04:59:40.878Z,58.06
2023-04-26T05:00:40.786Z,57.80
2023-04-26T05:01:40.839Z,58.21
2023-04-26T05:02:41.011Z,57.95
2023-04-26T05:03:40.936Z,57.50
2023-04-26T05:04:41.117Z,57.21
2023-04-26T05:05:40.878Z,56.94
2023-04-26T05:06:40.927Z,56.99
2023-04-26T05:07:40.944Z,56.93
2023-04-26T05:08:41.004Z,56.80
2023-04-26T05:09:41.154Z,56.94
2023-04-26T05:10:41.068Z,56.88
2023-04-26T05:11:41.057Z,56.72
2023-04-26T05:12:41.083Z,56.84
2023-04-26T05:13:41.127Z,56.76
2023-04-26T05:14:41.142Z,56.59
2023-04-26T05:15:41.153Z,56.98
2023-04-26T05:16:41.242Z,57.25
2023-04-26T05:17:41.245Z,57.15
2023-04-26T05:18:41.255Z,56.82
2023-04-26T05:19:41.265Z,56.90
2023-04-26T05:20:41.325Z,56.96
2023-04-26T05:21:41.351Z,56.96
2023-04-26T05:22:41.383Z,57.03
2023-04-26T05:23:41.376Z,57.21
2023-04-26T05:24:41.836Z,57.39
2023-04-26T05:25:41.415Z,57.30
2023-04-26T05:26:41.488Z,57.47
2023-04-26T05:27:42.335Z,57.25
2023-04-26T05:28:41.605Z,57.42
2023-04-26T05:29:41.861Z,57.33
2023-04-26T05:30:41.573Z,57.86
2023-04-26T05:31:41.647Z,57.50
2023-04-26T05:32:41.736Z,57.07
2023-04-26T05:33:41.664Z,57.06
2023-04-26T05:34:41.866Z,57.28
2023-04-26T05:35:41.715Z,57.23
2023-04-26T05:36:41.848Z,57.13
2023-04-26T05:37:41.794Z,57.19
2023-04-26T05:38:41.800Z,57.12
2023-04-26T05:39:42.330Z,57.29
2023-04-26T05:40:41.837Z,57.00
2023-04-26T05:41:41.850Z,57.34
2023-04-26T05:42:42.003Z,57.08
2023-04-26T05:43:41.913Z,56.98
2023-04-26T05:44:42.115Z,56.83
2023-04-26T05:45:41.913Z,56.81
2023-04-26T05:46:41.984Z,57.17
2023-04-26T05:47:42.016Z,57.18
2023-04-26T05:48:42.038Z,56.99
2023-04-26T05:49:42.049Z,56.89
2023-04-26T05:50:42.041Z,57.39
2023-04-26T05:51:42.053Z,59.63
2023-04-26T05:52:42.093Z,63.42
2023-04-26T05:53:42.131Z,58.90
2023-04-26T05:54:42.653Z,59.98
2023-04-26T05:55:42.556Z,58.68
2023-04-26T05:56:42.657Z,56.85
2023-04-26T05:57:42.442Z,57.32
2023-04-26T05:58:42.423Z,57.57
2023-04-26T05:59:42.437Z,57.98
2023-04-26T06:00:42.434Z,58.32
2023-04-26T06:01:42.429Z,58.70
2023-04-26T06:02:42.671Z,59.18
2023-04-26T06:03:42.831Z,59.26
2023-04-26T06:04:42.716Z,59.08
2023-04-26T06:05:42.719Z,59.15
2023-04-26T06:06:42.776Z,59.40
2023-04-26T06:07:42.782Z,60.00
2023-04-26T06:08:42.892Z,60.02
2023-04-26T06:09:42.917Z,59.75
2023-04-26T06:10:42.938Z,59.55
2023-04-26T06:11:42.926Z,59.16
2023-04-26T06:12:42.973Z,59.45
2023-04-26T06:13:42.974Z,58.91
2023-04-26T06:14:42.982Z,58.66
2023-04-26T06:15:42.976Z,58.79
2023-04-26T06:16:43.888Z,58.87
2023-04-26T06:17:43.119Z,58.22
2023-04-26T06:18:43.089Z,58.14
2023-04-26T06:19:43.374Z,58.79
2023-04-26T06:20:43.114Z,58.21
2023-04-26T06:21:43.116Z,58.77
2023-04-26T06:22:43.186Z,58.30
2023-04-26T06:23:43.251Z,58.54
2023-04-26T06:24:43.337Z,58.42
2023-04-26T06:25:43.411Z,58.74
2023-04-26T06:26:43.434Z,58.71
2023-04-26T06:27:43.543Z,58.38
2023-04-26T06:28:43.520Z,58.58
2023-04-26T06:29:43.576Z,58.55
2023-04-26T06:30:43.685Z,59.07
2023-04-26T06:31:43.702Z,57.48
2023-04-26T06:32:43.731Z,57.59
2023-04-26T06:33:43.793Z,57.63
2023-04-26T06:34:43.811Z,57.61
2023-04-26T06:35:44.363Z,57.90
2023-04-26T06:36:43.919Z,57.24
2023-04-26T06:37:43.904Z,56.95
2023-04-26T06:38:43.967Z,56.87
2023-04-26T06:39:44.023Z,57.02
2023-04-26T06:40:44.036Z,56.69
2023-04-26T06:41:44.068Z,57.32
2023-04-26T06:42:44.087Z,57.82
2023-04-26T06:43:44.181Z,57.20
2023-04-26T06:44:44.170Z,56.64
2023-04-26T06:45:44.134Z,56.12
2023-04-26T06:46:44.197Z,55.48
2023-04-26T06:47:44.236Z,55.71
2023-04-26T06:48:44.198Z,56.28
2023-04-26T06:49:44.234Z,56.96
2023-04-26T06:50:44.248Z,57.05
2023-04-26T06:51:44.266Z,57.21
2023-04-26T06:52:44.253Z,57.47
2023-04-26T06:53:44.351Z,57.67
2023-04-26T06:54:55.895Z,58.03
2023-04-26T06:55:45.367Z,57.89
2023-04-26T06:56:44.310Z,57.62
2023-04-26T06:57:44.300Z,57.36
2023-04-26T06:58:44.294Z,57.81
2023-04-26T06:59:44.325Z,57.70
2023-04-26T07:00:44.373Z,57.01
2023-04-26T07:01:44.322Z,56.24
2023-04-26T07:02:44.388Z,56.11
2023-04-26T07:03:44.380Z,55.93
2023-04-26T07:04:44.724Z,55.56
2023-04-26T07:05:44.276Z,55.45
2023-04-26T07:06:44.244Z,55.77
2023-04-26T07:07:44.215Z,55.39
2023-04-26T07:08:44.238Z,55.62
2023-04-26T07:09:44.543Z,55.24
2023-04-26T07:10:44.242Z,54.78
2023-04-26T07:11:44.241Z,54.83
2023-04-26T07:12:44.171Z,54.71
2023-04-26T07:13:44.191Z,54.88
2023-04-26T07:14:44.172Z,54.99
2023-04-26T07:15:44.238Z,55.13
2023-04-26T07:16:45.381Z,54.78
2023-04-26T07:17:44.207Z,54.18
2023-04-26T07:18:44.230Z,53.82
2023-04-26T07:19:44.233Z,53.69
2023-04-26T07:20:44.318Z,53.80
2023-04-26T07:21:44.424Z,54.15
2023-04-26T07:22:44.485Z,53.86
2023-04-26T07:23:44.575Z,53.65
2023-04-26T07:24:44.702Z,52.74
2023-04-26T07:25:44.873Z,52.55
2023-04-26T07:26:44.747Z,52.77
2023-04-26T07:27:44.796Z,52.60
2023-04-26T07:28:44.867Z,52.62
2023-04-26T07:29:44.970Z,52.81
2023-04-26T07:30:45.040Z,52.86
2023-04-26T07:31:45.064Z,53.14
2023-04-26T07:32:45.311Z,53.59
2023-04-26T07:33:45.255Z,53.07
2023-04-26T07:34:45.272Z,53.45
2023-04-26T07:35:45.366Z,54.19
2023-04-26T07:36:45.390Z,53.39
2023-04-26T07:37:45.606Z,53.88
2023-04-26T07:38:45.569Z,53.64
2023-04-26T07:39:45.593Z,53.03
2023-04-26T07:40:45.685Z,53.20
2023-04-26T07:41:45.694Z,53.31
2023-04-26T07:42:45.706Z,52.91
2023-04-26T07:43:45.804Z,51.49
2023-04-26T07:44:45.839Z,52.18
2023-04-26T07:45:45.829Z,52.42
2023-04-26T07:46:45.814Z,52.63
2023-04-26T07:47:46.214Z,52.11
2023-04-26T07:48:45.873Z,51.96
2023-04-26T07:49:47.750Z,51.95
2023-04-26T07:50:45.955Z,51.71
2023-04-26T07:51:45.929Z,51.60
2023-04-26T07:52:45.966Z,52.09
2023-04-26T07:53:45.967Z,52.12
2023-04-26T07:54:45.996Z,52.00
2023-04-26T07:55:45.988Z,52.22
2023-04-26T07:56:46.015Z,52.50
2023-04-26T07:57:46.048Z,52.12
2023-04-26T07:58:46.048Z,51.23
2023-04-26T07:59:46.166Z,50.86
2023-04-26T08:00:46.138Z,51.26
2023-04-26T08:01:46.156Z,51.86
2023-04-26T08:02:46.198Z,51.74
2023-04-26T08:03:46.277Z,51.95
2023-04-26T08:04:46.242Z,51.26
2023-04-26T08:05:46.642Z,50.63
2023-04-26T08:06:46.213Z,51.00
2023-04-26T08:07:46.299Z,49.99
2023-04-26T08:08:46.199Z,49.70
2023-04-26T08:09:46.228Z,49.94
2023-04-26T08:10:46.396Z,49.79
2023-04-26T08:11:46.317Z,49.47
2023-04-26T08:12:46.256Z,50.39
2023-04-26T08:13:46.257Z,49.57
2023-04-26T08:14:46.293Z,49.76
2023-04-26T08:15:46.279Z,49.79
2023-04-26T08:16:46.331Z,50.01
2023-04-26T08:17:46.397Z,49.40
2023-04-26T08:18:47.031Z,48.86
2023-04-26T08:19:46.355Z,48.97
2023-04-26T08:20:46.331Z,49.29
2023-04-26T08:21:46.354Z,49.08
2023-04-26T08:22:46.886Z,48.59
2023-04-26T08:23:46.460Z,48.94
2023-04-26T08:24:46.492Z,48.96
2023-04-26T08:25:47.997Z,49.01
2023-04-26T08:26:46.641Z,48.00
2023-04-26T08:27:46.643Z,48.32
2023-04-26T08:28:46.717Z,47.91
2023-04-26T08:29:46.699Z,47.54
2023-04-26T08:30:46.741Z,47.98
2023-04-26T08:31:46.792Z,47.34
2023-04-26T08:32:46.908Z,47.76
2023-04-26T08:33:46.787Z,46.70
2023-04-26T08:34:46.856Z,47.45
2023-04-26T08:35:46.899Z,47.83
2023-04-26T08:36:46.897Z,47.73
2023-04-26T08:37:46.875Z,47.33
2023-04-26T08:38:46.900Z,47.03
2023-04-26T08:39:46.914Z,47.16
2023-04-26T08:40:47.403Z,46.77
2023-04-26T08:41:46.900Z,47.18
2023-04-26T08:42:46.904Z,46.61
2023-04-26T08:43:46.908Z,46.34
2023-04-26T08:44:46.944Z,46.31
2023-04-26T08:45:46.997Z,46.15
2023-04-26T08:46:46.964Z,45.73
2023-04-26T08:47:46.960Z,44.89
2023-04-26T08:48:46.983Z,45.37
2023-04-26T08:49:46.978Z,45.39
2023-04-26T08:50:47.380Z,45.10
2023-04-26T08:51:46.984Z,45.72
2023-04-26T08:52:46.965Z,45.98
2023-04-26T08:53:46.999Z,45.03
2023-04-26T08:54:46.999Z,45.59
2023-04-26T08:55:46.987Z,45.67
2023-04-26T08:56:46.960Z,45.07
2023-04-26T08:57:47.018Z,45.17
2023-04-26T08:58:47.017Z,45.49
2023-04-26T08:59:47.084Z,45.12
2023-04-26T09:00:47.054Z,45.81
2023-04-26T09:01:47.186Z,45.00
2023-04-26T09:02:47.330Z,44.42
2023-04-26T09:03:47.427Z,45.25
2023-04-26T09:04:47.375Z,45.70
2023-04-26T09:05:47.416Z,44.86
2023-04-26T09:06:47.441Z,44.61
2023-04-26T09:07:47.563Z,44.65
2023-04-26T09:08:47.558Z,43.86
2023-04-26T09:09:47.728Z,43.69
2023-04-26T09:10:47.922Z,45.09
2023-04-26T09:11:47.733Z,44.29
2023-04-26T09:12:47.765Z,44.49
2023-04-26T09:13:47.829Z,43.70
2023-04-26T09:14:47.864Z,43.61
2023-04-26T09:15:47.925Z,43.13
2023-04-26T09:16:47.958Z,43.22
2023-04-26T09:17:47.982Z,42.44
2023-04-26T09:18:48.016Z,42.62
2023-04-26T09:19:48.039Z,42.16
2023-04-26T09:20:48.065Z,42.76
2023-04-26T09:21:48.142Z,42.71
2023-04-26T09:22:48.205Z,42.60
2023-04-26T09:23:48.238Z,42.56
2023-04-26T09:24:48.256Z,42.33
2023-04-26T09:25:48.316Z,41.82
2023-04-26T09:26:48.318Z,41.99
2023-04-26T09:27:48.336Z,41.76
2023-04-26T09:28:48.383Z,41.59
2023-04-26T09:29:48.412Z,41.83
2023-04-26T09:30:48.426Z,42.20
2023-04-26T09:31:49.789Z,43.22
2023-04-26T09:32:48.511Z,41.98
2023-04-26T09:33:48.461Z,41.83
2023-04-26T09:34:48.440Z,40.57
2023-04-26T09:35:48.921Z,41.58
2023-04-26T09:36:48.515Z,41.34
2023-04-26T09:37:57.261Z,42.44
2023-04-26T09:38:49.832Z,42.28
2023-04-26T09:39:48.529Z,40.84
2023-04-26T09:40:48.960Z,40.14
2023-04-26T09:41:48.493Z,40.17
2023-04-26T09:42:48.494Z,40.87
2023-04-26T09:43:48.521Z,41.30
2023-04-26T09:44:48.557Z,40.28
2023-04-26T09:45:48.945Z,39.93
2023-04-26T09:46:48.571Z,39.86
2023-04-26T09:47:48.513Z,39.07
2023-04-26T09:48:48.473Z,38.82
2023-04-26T09:49:48.538Z,38.82
2023-04-26T09:50:48.621Z,38.88
2023-04-26T09:51:48.619Z,39.17
2023-04-26T09:52:48.675Z,40.21
2023-04-26T09:53:48.707Z,39.22
2023-04-26T09:54:48.765Z,38.74
2023-04-26T09:55:48.894Z,39.22
2023-04-26T09:56:48.841Z,38.93
2023-04-26T09:57:48.914Z,39.50
2023-04-26T09:58:49.901Z,38.76
2023-04-26T09:59:48.956Z,39.45
2023-04-26T10:00:49.412Z,39.87
2023-04-26T10:01:49.901Z,40.09
2023-04-26T10:02:49.261Z,39.72
2023-04-26T10:03:49.441Z,39.77
2023-04-26T10:04:49.292Z,40.03
2023-04-26T10:05:49.256Z,39.69
2023-04-26T10:06:49.287Z,39.02
2023-04-26T10:07:49.310Z,38.13
2023-04-26T10:08:49.381Z,37.89
2023-04-26T10:09:49.411Z,38.53
2023-04-26T10:10:49.448Z,38.28
2023-04-26T10:11:49.406Z,37.91
2023-04-26T10:12:49.397Z,37.89
2023-04-26T10:13:49.393Z,37.90
2023-04-26T10:14:49.403Z,38.26
2023-04-26T10:15:49.415Z,36.48
2023-04-26T10:16:49.426Z,36.56
2023-04-26T10:17:51.438Z,37.11
2023-04-26T10:18:49.726Z,38.20
2023-04-26T10:19:49.596Z,37.63
2023-04-26T10:20:49.664Z,38.22
2023-04-26T10:21:49.647Z,37.82
2023-04-26T10:22:49.651Z,38.77
2023-04-26T10:23:49.670Z,38.57
2023-04-26T10:24:49.629Z,36.73
2023-04-26T10:25:49.653Z,37.22
2023-04-26T10:26:49.707Z,37.88
2023-04-26T10:27:49.664Z,37.26
2023-04-26T10:28:50.831Z,36.90
2023-04-26T10:29:49.671Z,37.31
2023-04-26T10:30:49.924Z,36.75
2023-04-26T10:31:49.707Z,36.28
2023-04-26T10:32:49.640Z,36.27
2023-04-26T10:33:49.641Z,36.54
2023-04-26T10:34:49.650Z,36.63
2023-04-26T10:35:49.936Z,35.64
2023-04-26T10:36:49.635Z,34.79
2023-04-26T10:37:49.637Z,35.01
2023-04-26T10:38:49.619Z,35.88
2023-04-26T10:39:49.596Z,36.19
2023-04-26T10:40:49.946Z,35.69
2023-04-26T10:41:49.590Z,35.30
2023-04-26T10:42:49.705Z,35.16
2023-04-26T10:43:49.745Z,35.42
2023-04-26T10:44:49.534Z,34.37
2023-04-26T10:45:49.942Z,35.98
2023-04-26T10:46:49.519Z,36.16
2023-04-26T10:47:49.592Z,35.97
2023-04-26T10:48:49.887Z,35.45
2023-04-26T10:49:49.775Z,34.31
2023-04-26T10:50:49.755Z,34.75
2023-04-26T10:51:49.744Z,35.88
2023-04-26T10:52:49.660Z,34.74
2023-04-26T10:53:49.768Z,35.22
2023-04-26T10:54:49.551Z,35.84
2023-04-26T10:55:49.549Z,35.03
2023-04-26T10:56:49.985Z,34.98
2023-04-26T10:57:49.505Z,35.29
2023-04-26T10:58:49.428Z,35.14
2023-04-26T10:59:54.729Z,34.23
2023-04-26T11:00:50.434Z,34.64
2023-04-26T11:01:49.423Z,34.86
2023-04-26T11:02:51.903Z,34.90
2023-04-26T11:03:49.646Z,33.61
2023-04-26T11:04:49.430Z,34.23
2023-04-26T11:05:49.378Z,34.19
2023-04-26T11:06:49.455Z,33.17
2023-04-26T11:07:49.392Z,31.87
2023-04-26T11:08:49.376Z,31.00
2023-04-26T11:09:49.377Z,32.04
2023-04-26T11:10:49.340Z,32.95
2023-04-26T11:11:49.457Z,32.90
2023-04-26T11:12:49.389Z,33.09
2023-04-26T11:13:49.396Z,32.68
2023-04-26T11:14:49.364Z,32.81
2023-04-26T11:15:51.236Z,32.29
2023-04-26T11:16:49.536Z,31.81
2023-04-26T11:17:49.430Z,31.92
2023-04-26T11:18:49.346Z,30.35
2023-04-26T11:19:49.342Z,30.40
2023-04-26T11:20:49.303Z,30.49
2023-04-26T11:21:49.321Z,30.33
2023-04-26T11:22:49.343Z,30.56
2023-04-26T11:23:49.353Z,31.14
2023-04-26T11:24:49.310Z,32.36
2023-04-26T11:25:49.301Z,32.65
2023-04-26T11:26:49.450Z,32.22
2023-04-26T11:27:49.250Z,31.62
2023-04-26T11:28:49.282Z,30.26
2023-04-26T11:29:49.270Z,31.88
2023-04-26T11:30:49.230Z,32.66
2023-04-26T11:31:50.099Z,31.61
2023-04-26T11:32:49.277Z,31.34
2023-04-26T11:33:50.999Z,31.27
2023-04-26T11:34:49.192Z,30.73
2023-04-26T11:35:49.217Z,30.88
2023-04-26T11:36:49.514Z,30.31
2023-04-26T11:37:49.252Z,30.82
2023-04-26T11:38:49.308Z,31.53
2023-04-26T11:39:49.236Z,31.77
2023-04-26T11:40:49.175Z,30.81
2023-04-26T11:41:49.220Z,31.22
2023-04-26T11:42:49.162Z,30.96
2023-04-26T11:43:49.226Z,29.44
2023-04-26T11:44:49.163Z,29.26
2023-04-26T11:45:49.166Z,29.27
2023-04-26T11:46:49.530Z,29.50
2023-04-26T11:47:49.211Z,29.20
2023-04-26T11:48:49.268Z,29.71
2023-04-26T11:49:49.320Z,29.28
2023-04-26T11:50:49.237Z,29.17
2023-04-26T11:51:49.242Z,29.64
2023-04-26T11:52:49.249Z,29.47
2023-04-26T11:53:49.249Z,29.95
2023-04-26T11:54:49.286Z,29.85
2023-04-26T11:55:49.341Z,29.41
2023-04-26T11:56:49.393Z,29.71
2023-04-26T11:57:49.486Z,29.81
2023-04-26T11:58:49.494Z,29.71
2023-04-26T11:59:49.564Z,29.73
2023-04-26T12:00:49.650Z,29.94
2023-04-26T12:01:49.732Z,29.31
2023-04-26T12:02:49.844Z,29.30
2023-04-26T12:03:49.958Z,28.75
2023-04-26T12:04:49.941Z,29.38
2023-04-26T12:05:49.933Z,29.55
2023-04-26T12:06:49.986Z,29.52
2023-04-26T12:07:50.039Z,30.07
2023-04-26T12:08:50.298Z,30.17
2023-04-26T12:09:50.102Z,29.77
2023-04-26T12:10:50.191Z,29.80
2023-04-26T12:11:50.208Z,29.89
2023-04-26T12:12:50.229Z,28.48
2023-04-26T12:13:50.348Z,28.41
2023-04-26T12:14:50.414Z,28.12
2023-04-26T12:15:50.457Z,28.25
2023-04-26T12:16:51.020Z,29.08
2023-04-26T12:18:06.756Z,28.94
2023-04-26T12:19:10.091Z,27.83
2023-04-26T12:20:09.995Z,28.75
2023-04-26T12:21:10.442Z,28.30
2023-04-26T12:22:10.261Z,28.21
2023-04-26T12:23:10.104Z,27.10
2023-04-26T12:24:10.134Z,26.84
2023-04-26T12:25:10.053Z,27.49
2023-04-26T12:26:10.038Z,28.42
2023-04-26T12:27:09.973Z,27.83
2023-04-26T12:28:10.231Z,27.74
2023-04-26T12:29:09.973Z,27.56
2023-04-26T12:30:09.967Z,28.52
2023-04-26T12:31:10.025Z,28.70
2023-04-26T12:32:32.588Z,29.22
2023-04-26T12:33:32.593Z,28.71
2023-04-26T12:34:32.588Z,29.14
2023-04-26T12:35:32.553Z,29.02
2023-04-26T12:36:32.579Z,28.73
2023-04-26T12:37:32.552Z,28.40
2023-04-26T12:38:32.542Z,29.18
2023-04-26T12:39:32.549Z,29.33
2023-04-26T12:40:32.569Z,29.27
2023-04-26T12:41:32.527Z,29.26
2023-04-26T12:42:32.516Z,29.43
2023-04-26T12:43:32.498Z,28.67
2023-04-26T12:44:32.505Z,28.98
2023-04-26T12:45:32.473Z,29.03
2023-04-26T12:46:32.568Z,28.97
2023-04-26T12:47:32.490Z,28.22
2023-04-26T12:48:32.449Z,28.71
2023-04-26T12:49:32.441Z,28.87
2023-04-26T12:50:32.633Z,27.65
2023-04-26T12:51:32.463Z,27.74
2023-04-26T12:52:32.448Z,28.00
2023-04-26T12:53:32.468Z,28.80